createdAt,value
2022-09-10T00:01:22.004Z,2.17
2022-09-10T00:03:50.113Z,3.20
2022-09-10T00:06:19.143Z,4.57
2022-09-10T00:08:46.994Z,4.00
2022-09-10T00:11:15.517Z,3.07
2022-09-10T00:13:43.182Z,1.87
2022-09-10T00:16:14.363Z,3.23
2022-09-10T00:18:42.176Z,9.00
2022-09-10T00:21:13.711Z,4.43
2022-09-10T00:23:40.942Z,4.00
2022-09-10T00:26:19.045Z,2.37
2022-09-10T00:28:46.312Z,4.20
2022-09-10T00:31:14.065Z,3.03
2022-09-10T00:33:42.275Z,1.87
2022-09-10T00:36:17.533Z,7.83
2022-09-10T00:38:44.646Z,3.73
2022-09-10T00:41:11.924Z,3.53
2022-09-10T00:44:04.808Z,3.20
2022-09-10T00:46:35.719Z,3.13
2022-09-10T00:49:12.315Z,2.60
2022-09-10T00:51:40.900Z,2.17
2022-09-10T00:54:08.377Z,2.63
2022-09-10T00:56:36.071Z,2.33
2022-09-10T00:59:05.577Z,4.53
2022-09-10T01:01:34.091Z,4.73
2022-09-10T01:04:02.622Z,2.83
2022-09-10T01:06:29.961Z,3.00
2022-09-10T01:08:57.195Z,2.53
2022-09-10T01:11:42.943Z,2.87
2022-09-10T01:14:37.932Z,2.37
2022-09-10T01:17:38.469Z,2.43
2022-09-10T01:20:24.941Z,4.70
2022-09-10T01:23:22.090Z,2.77
2022-09-10T01:26:09.486Z,3.93
2022-09-10T01:28:55.025Z,2.30
2022-09-10T01:31:40.004Z,2.50
2022-09-10T01:34:17.371Z,3.20
2022-09-10T01:36:49.217Z,2.10
2022-09-10T01:39:18.712Z,2.80
2022-09-10T01:41:46.016Z,2.90
2022-09-10T01:44:41.902Z,2.07
2022-09-10T01:47:35.312Z,2.53
2022-09-10T01:50:24.535Z,2.43
2022-09-10T01:52:58.597Z,2.10
2022-09-10T01:55:45.252Z,2.80
2022-09-10T01:58:24.235Z,2.63
2022-09-10T02:01:05.298Z,2.57
2022-09-10T02:03:34.106Z,2.37
2022-09-10T02:06:03.749Z,5.23
2022-09-10T02:08:35.284Z,1.90
2022-09-10T02:11:06.620Z,2.27
2022-09-10T02:13:34.524Z,2.47
2022-09-10T02:16:03.465Z,4.20
2022-09-10T02:18:32.969Z,2.33
2022-09-10T02:21:02.924Z,4.30
2022-09-10T02:23:40.688Z,2.77
2022-09-10T02:26:07.753Z,2.30
2022-09-10T02:28:34.529Z,2.07
2022-09-10T02:31:02.121Z,3.00
2022-09-10T02:33:28.903Z,1.80
2022-09-10T02:35:58.929Z,3.83
2022-09-10T02:38:25.668Z,3.30
2022-09-10T02:40:52.810Z,7.50
2022-09-10T02:43:20.170Z,2.33
2022-09-10T02:45:46.959Z,2.30
2022-09-10T02:48:14.014Z,2.07
2022-09-10T02:50:41.468Z,2.47
2022-09-10T02:53:09.170Z,7.50
2022-09-10T02:55:36.201Z,5.50
2022-09-10T02:58:02.897Z,6.60
2022-09-10T03:00:32.872Z,3.10
2022-09-10T03:03:02.908Z,4.87
2022-09-10T03:05:30.313Z,6.00
2022-09-10T03:07:57.280Z,1.80
2022-09-10T03:10:25.056Z,2.23
2022-09-10T03:12:52.132Z,2.50
2022-09-10T03:15:21.081Z,1.90
2022-09-10T03:17:47.743Z,2.57
2022-09-10T03:20:15.234Z,2.00
2022-09-10T03:22:41.916Z,2.70
2022-09-10T03:25:09.086Z,3.03
2022-09-10T03:27:36.171Z,3.73
2022-09-10T03:30:03.504Z,1.90
2022-09-10T03:32:32.216Z,4.20
2022-09-10T03:35:00.106Z,2.67
2022-09-10T03:37:26.928Z,3.17
2022-09-10T03:39:53.747Z,2.50
2022-09-10T03:42:20.481Z,2.73
2022-09-10T03:44:47.181Z,3.13
2022-09-10T03:47:14.611Z,4.40
2022-09-10T03:49:41.289Z,4.00
2022-09-10T03:52:08.576Z,4.90
2022-09-10T03:54:35.946Z,2.70
2022-09-10T03:57:03.579Z,3.10
2022-09-10T03:59:30.307Z,3.70
2022-09-10T04:01:57.748Z,3.03
2022-09-10T04:04:24.507Z,4.00
2022-09-10T04:06:53.448Z,4.73
2022-09-10T04:09:20.131Z,3.53
2022-09-10T04:11:47.231Z,5.67
2022-09-10T04:14:15.683Z,3.00
2022-09-10T04:16:42.823Z,3.67
2022-09-10T04:19:09.567Z,3.37
2022-09-10T04:21:36.291Z,2.50
2022-09-10T04:24:03.182Z,3.53
2022-09-10T04:26:30.387Z,3.97
2022-09-10T04:28:57.453Z,3.93
2022-09-10T04:31:24.204Z,4.30
2022-09-10T04:33:51.007Z,3.40
2022-09-10T04:36:17.789Z,3.83
2022-09-10T04:38:44.746Z,3.73
2022-09-10T04:41:12.176Z,5.53
2022-09-10T04:43:38.875Z,6.33
2022-09-10T04:46:05.685Z,4.17
2022-09-10T04:48:33.931Z,7.03
2022-09-10T04:51:15.712Z,7.10
2022-09-10T04:53:43.602Z,3.20
2022-09-10T04:56:10.498Z,4.53
2022-09-10T04:58:39.077Z,3.57
2022-09-10T05:01:06.716Z,2.83
2022-09-10T05:03:34.428Z,4.93
2022-09-10T05:06:01.461Z,3.93
2022-09-10T05:08:28.493Z,3.30
2022-09-10T05:10:55.187Z,6.53
2022-09-10T05:13:22.992Z,2.93
2022-09-10T05:15:50.360Z,3.50
2022-09-10T05:18:17.503Z,2.77
2022-09-10T05:20:45.037Z,5.03
2022-09-10T05:23:12.156Z,2.83
2022-09-10T05:25:39.255Z,11.57
2022-09-10T05:28:06.550Z,2.70
2022-09-10T05:30:33.316Z,2.80
2022-09-10T05:33:01.624Z,2.90
2022-09-10T05:35:29.127Z,5.10
2022-09-10T05:37:59.502Z,3.07
2022-09-10T05:40:26.839Z,3.47
2022-09-10T05:42:54.175Z,3.33
2022-09-10T05:45:21.791Z,2.27
2022-09-10T05:47:49.158Z,2.13
2022-09-10T05:50:17.335Z,2.50
2022-09-10T05:52:44.616Z,3.20
2022-09-10T05:55:11.486Z,2.00
2022-09-10T05:57:40.665Z,3.70
2022-09-10T06:00:09.702Z,3.37
2022-09-10T06:02:37.064Z,2.93
2022-09-10T06:05:04.664Z,2.07
2022-09-10T06:07:32.750Z,2.13
2022-09-10T06:10:00.600Z,2.80
2022-09-10T06:12:27.341Z,2.00
2022-09-10T06:14:54.807Z,4.93
2022-09-10T06:17:21.523Z,2.07
2022-09-10T06:19:48.226Z,2.20
2022-09-10T06:22:15.060Z,4.10
2022-09-10T06:24:42.518Z,2.17
2022-09-10T06:27:10.046Z,1.57
2022-09-10T06:29:37.126Z,2.37
2022-09-10T06:32:04.537Z,2.40
2022-09-10T06:34:32.394Z,3.43
2022-09-10T06:36:59.458Z,6.23
2022-09-10T06:39:28.152Z,2.77
2022-09-10T06:41:54.946Z,2.07
2022-09-10T06:44:22.434Z,1.30
2022-09-10T06:47:28.293Z,1.83
2022-09-10T06:49:36.920Z,2.20
2022-09-10T06:52:04.149Z,1.93
2022-09-10T06:54:30.855Z,1.33
2022-09-10T06:56:58.120Z,4.03
2022-09-10T06:59:25.029Z,2.17
2022-09-10T07:01:52.114Z,2.20
2022-09-10T07:04:18.849Z,3.53
2022-09-10T07:06:48.110Z,1.97
2022-09-10T07:09:15.903Z,3.27
2022-09-10T07:11:43.404Z,2.07
2022-09-10T07:14:13.980Z,1.60
2022-09-10T07:16:42.971Z,2.10
2022-09-10T07:19:17.950Z,3.40
2022-09-10T07:21:45.257Z,2.50
2022-09-10T07:24:12.571Z,2.77
2022-09-10T07:26:39.356Z,3.13
2022-09-10T07:29:06.643Z,2.33
2022-09-10T07:31:35.739Z,2.10
2022-09-10T07:34:04.027Z,1.83
2022-09-10T07:36:31.729Z,5.40
2022-09-10T07:39:01.497Z,1.53
2022-09-10T07:41:30.361Z,1.60
2022-09-10T07:43:57.912Z,4.70
2022-09-10T07:46:25.836Z,2.40
2022-09-10T07:48:57.975Z,3.93
2022-09-10T07:51:27.576Z,1.87
2022-09-10T07:53:56.626Z,3.10
2022-09-10T07:56:27.606Z,1.53
2022-09-10T07:58:55.503Z,4.00
2022-09-10T08:01:22.491Z,1.97
2022-09-10T08:03:49.394Z,3.30
2022-09-10T08:06:17.389Z,1.40
2022-09-10T08:08:44.179Z,3.00
2022-09-10T08:11:13.559Z,2.40
2022-09-10T08:13:42.167Z,2.43
2022-09-10T08:16:13.819Z,2.40
2022-09-10T08:18:41.066Z,6.40
2022-09-10T08:21:08.919Z,2.40
2022-09-10T08:23:35.784Z,2.53
2022-09-10T08:26:04.505Z,1.83
2022-09-10T08:28:34.449Z,1.30
2022-09-10T08:31:11.707Z,1.50
2022-09-10T08:33:39.788Z,12.37
2022-09-10T08:36:12.078Z,3.03
2022-09-10T08:38:40.215Z,3.30
2022-09-10T08:41:13.838Z,4.67
2022-09-10T08:43:58.244Z,4.73
2022-09-10T08:46:29.397Z,2.73
2022-09-10T08:49:14.708Z,2.63
2022-09-10T08:51:57.070Z,2.90
2022-09-10T08:54:53.307Z,2.57
2022-09-10T08:57:30.685Z,1.83
2022-09-10T09:00:01.551Z,2.57
2022-09-10T09:02:52.695Z,2.30
2022-09-10T09:05:22.878Z,2.90
2022-09-10T09:07:51.400Z,3.07
2022-09-10T09:11:04.175Z,2.50
2022-09-10T09:13:55.513Z,3.07
2022-09-10T09:16:43.988Z,2.53
2022-09-10T09:19:35.003Z,5.47
2022-09-10T09:22:08.723Z,2.10
2022-09-10T09:24:50.378Z,3.10
2022-09-10T09:27:20.172Z,3.67
2022-09-10T09:30:17.019Z,2.93
2022-09-10T09:36:37.012Z,2.57
2022-09-10T09:40:06.777Z,3.13
2022-09-10T09:43:18.622Z,2.33
2022-09-10T09:45:56.629Z,6.03
2022-09-10T10:57:30.475Z,1.83
2022-09-10T11:00:04.001Z,1.93
2022-09-10T11:02:58.290Z,4.20
2022-09-10T11:05:34.352Z,9.93
2022-09-10T11:08:09.942Z,3.40
2022-09-10T11:10:45.087Z,3.20
2022-09-10T11:20:45.559Z,1.40
2022-09-10T11:31:19.393Z,5.73
2022-09-10T11:53:28.279Z,1.60
2022-09-10T11:56:23.445Z,2.13
2022-09-10T11:59:27.714Z,3.00
2022-09-10T12:02:18.101Z,4.43
2022-09-10T12:05:23.586Z,5.07
2022-09-10T12:08:46.081Z,3.70
2022-09-10T12:11:19.838Z,4.83
2022-09-10T12:13:50.145Z,1.50
2022-09-10T12:16:23.942Z,1.67
2022-09-10T12:18:54.715Z,3.10
2022-09-10T12:21:42.931Z,2.80
2022-09-10T12:24:34.239Z,2.07
2022-09-10T12:27:03.438Z,1.50
2022-09-10T12:29:33.555Z,1.77
2022-09-10T12:32:12.743Z,1.80
2022-09-10T12:34:43.165Z,3.10
2022-09-10T12:37:41.586Z,4.10
2022-09-10T12:40:26.586Z,3.63
2022-09-10T12:43:18.850Z,4.20
2022-09-10T12:46:25.657Z,5.53
2022-09-10T12:48:58.589Z,7.30
2022-09-10T12:51:52.820Z,3.87
2022-09-10T12:54:44.264Z,3.20
2022-09-10T12:57:20.369Z,3.17
2022-09-10T13:00:15.389Z,5.73
2022-09-10T13:03:15.290Z,8.00
2022-09-10T13:05:44.980Z,4.70
2022-09-10T13:08:53.204Z,4.10
2022-09-10T13:11:24.897Z,5.17
2022-09-10T13:14:00.310Z,4.60
2022-09-10T13:16:27.484Z,4.30
2022-09-10T13:19:13.435Z,4.90
2022-09-10T13:21:48.606Z,2.40
2022-09-10T13:24:56.352Z,3.63
2022-09-10T13:27:42.058Z,2.97
2022-09-10T13:30:21.161Z,4.63
2022-09-10T13:32:55.883Z,2.00
2022-09-10T13:36:07.442Z,2.30
2022-09-10T13:39:03.524Z,2.60
2022-09-10T13:41:33.110Z,3.73
2022-09-10T13:44:11.840Z,5.23
2022-09-10T13:46:50.683Z,2.80
2022-09-10T13:49:29.229Z,2.37
2022-09-10T13:51:59.382Z,4.23
2022-09-10T13:54:49.615Z,1.80
2022-09-10T13:57:29.915Z,11.57
2022-09-10T14:00:18.928Z,43.50
2022-09-10T14:02:48.414Z,59.23
2022-09-10T14:05:23.591Z,3.00
2022-09-10T14:07:51.900Z,2.67
2022-09-10T14:10:18.803Z,6.80
2022-09-10T14:12:51.556Z,6.63
2022-09-10T14:15:23.659Z,2.30
2022-09-10T14:17:57.454Z,3.97
2022-09-10T14:20:29.462Z,2.80
2022-09-10T14:23:05.641Z,3.20
2022-09-10T14:25:40.396Z,2.93
2022-09-10T14:28:23.898Z,9.63
2022-09-10T14:30:53.090Z,2.70
2022-09-10T14:33:36.994Z,1.83
2022-09-10T14:36:15.231Z,3.40
2022-09-10T14:38:44.665Z,5.50
2022-09-10T14:41:26.748Z,2.73
2022-09-10T14:44:20.829Z,4.87
2022-09-10T14:47:08.017Z,3.10
2022-09-10T14:49:38.325Z,8.10
2022-09-10T14:52:13.189Z,3.23
2022-09-10T14:54:42.257Z,1.60
2022-09-10T14:57:16.870Z,1.60
2022-09-10T14:59:47.215Z,2.43
2022-09-10T15:02:22.287Z,1.63
2022-09-10T15:04:50.505Z,2.60
2022-09-10T15:07:17.340Z,2.43
2022-09-10T15:09:46.490Z,2.60
2022-09-10T15:12:24.164Z,5.27
2022-09-10T15:14:51.925Z,1.83
2022-09-10T15:17:18.828Z,3.00
2022-09-10T15:19:47.122Z,3.03
2022-09-10T15:22:21.523Z,3.20
2022-09-10T15:25:08.558Z,2.97
2022-09-10T15:27:35.990Z,4.33
2022-09-10T15:30:03.448Z,1.50
2022-09-10T15:32:34.642Z,2.63
2022-09-10T15:35:01.648Z,4.13
2022-09-10T15:37:28.785Z,4.63
2022-09-10T15:39:57.641Z,2.67
2022-09-10T15:42:24.853Z,1.77
2022-09-10T15:44:51.579Z,2.40
2022-09-10T15:47:18.459Z,2.07
2022-09-10T15:49:45.247Z,3.63
2022-09-10T15:52:11.920Z,3.20
2022-09-10T15:54:39.516Z,4.23
2022-09-10T15:57:07.254Z,4.50
2022-09-10T15:59:34.174Z,2.10
2022-09-10T16:02:00.869Z,8.73
2022-09-10T16:04:33.823Z,2.70
2022-09-10T16:07:03.365Z,4.20
2022-09-10T16:09:30.491Z,2.93
2022-09-10T16:11:57.224Z,4.73
2022-09-10T16:14:24.382Z,3.90
2022-09-10T16:16:51.189Z,5.53
2022-09-10T16:19:18.426Z,2.43
2022-09-10T16:21:48.693Z,4.50
2022-09-10T16:24:19.101Z,3.23
2022-09-10T16:26:48.412Z,2.90
2022-09-10T16:29:19.626Z,3.10
2022-09-10T16:31:46.940Z,2.83
2022-09-10T16:34:18.896Z,4.93
2022-09-10T16:36:56.011Z,3.60
2022-09-10T16:39:23.465Z,2.30
2022-09-10T16:41:53.675Z,2.73
2022-09-10T16:44:20.733Z,2.80
2022-09-10T16:46:50.581Z,1.93
2022-09-10T16:49:19.604Z,2.53
2022-09-10T16:51:49.380Z,4.17
2022-09-10T16:54:19.549Z,2.70
2022-09-10T16:56:47.659Z,5.27
2022-09-10T16:59:20.566Z,6.10
2022-09-10T17:01:48.959Z,5.00
2022-09-10T17:04:23.416Z,6.30
2022-09-10T17:07:13.623Z,12.87
2022-09-10T17:09:45.501Z,4.83
2022-09-10T17:12:15.727Z,5.27
2022-09-10T17:14:48.125Z,6.70
2022-09-10T17:17:15.056Z,4.70
2022-09-10T17:19:43.666Z,5.97
2022-09-10T17:22:11.281Z,4.80
2022-09-10T17:24:39.302Z,9.10
2022-09-10T17:27:22.421Z,7.30
2022-09-10T17:29:55.744Z,11.53
2022-09-10T17:32:26.999Z,6.00
2022-09-10T17:34:57.690Z,6.03
2022-09-10T17:37:27.288Z,7.70
2022-09-10T17:39:57.091Z,7.43
2022-09-10T17:42:30.775Z,5.90
2022-09-10T17:45:02.354Z,6.30
2022-09-10T17:48:28.311Z,6.53
2022-09-10T18:12:04.805Z,10.47
2022-09-10T18:14:37.520Z,11.90
2022-09-10T18:19:52.720Z,11.10
2022-09-10T18:22:26.643Z,10.43
2022-09-10T18:24:57.318Z,9.40
2022-09-10T18:30:19.673Z,10.80
2022-09-10T18:32:51.656Z,10.57
2022-09-10T18:35:30.302Z,10.37
2022-09-10T19:00:29.983Z,14.27
2022-09-10T19:19:31.919Z,7.47
2022-09-10T19:30:04.127Z,7.43
2022-09-10T19:38:42.057Z,8.70
2022-09-10T19:41:15.752Z,9.83
2022-09-10T19:43:42.542Z,10.03
2022-09-10T19:46:10.768Z,9.33
2022-09-10T19:48:37.715Z,8.57
2022-09-10T19:51:05.338Z,9.30
2022-09-10T19:53:37.654Z,12.13
2022-09-10T19:56:11.576Z,9.13
2022-09-10T19:58:38.764Z,9.17
2022-09-10T20:01:09.878Z,14.83
2022-09-10T20:03:38.191Z,10.90
2022-09-10T20:06:05.739Z,9.57
2022-09-10T20:08:35.792Z,8.80
2022-09-10T20:11:06.286Z,10.97
2022-09-10T20:13:34.496Z,8.90
2022-09-10T20:16:06.588Z,10.03
2022-09-10T20:18:38.545Z,9.43
2022-09-10T20:21:14.685Z,11.43
2022-09-10T20:23:43.663Z,10.67
2022-09-10T20:26:21.439Z,12.27
2022-09-10T20:29:04.223Z,11.87
2022-09-10T20:31:32.988Z,10.53
2022-09-10T20:34:06.052Z,9.93
2022-09-10T20:36:35.195Z,10.00
2022-09-10T20:39:02.637Z,11.80
2022-09-10T20:41:32.717Z,10.63
2022-09-10T20:44:05.604Z,12.30
2022-09-10T20:46:34.214Z,11.30
2022-09-10T20:49:06.509Z,14.20
2022-09-10T20:51:48.892Z,11.33
2022-09-10T20:54:21.500Z,14.47
2022-09-10T20:56:53.704Z,12.30
2022-09-10T20:59:27.751Z,11.43
2022-09-10T21:01:58.180Z,12.07
2022-09-10T21:04:36.630Z,12.37
2022-09-10T21:07:04.154Z,13.10
2022-09-10T21:09:34.940Z,12.90
2022-09-10T21:12:05.409Z,13.10
2022-09-10T21:14:34.736Z,12.00
2022-09-10T21:17:04.545Z,15.20
2022-09-10T21:19:34.913Z,13.53
2022-09-10T21:22:05.859Z,12.80
2022-09-10T21:24:33.778Z,12.07
2022-09-10T21:27:04.444Z,14.50
2022-09-10T21:29:31.348Z,13.33
2022-09-10T21:32:01.200Z,9.50
2022-09-10T21:34:28.648Z,10.40
2022-09-10T21:37:08.534Z,9.40
2022-09-10T21:39:36.090Z,10.17
2022-09-10T21:42:06.522Z,9.40
2022-09-10T21:44:35.663Z,11.53
2022-09-10T21:47:03.262Z,8.77
2022-09-10T21:49:35.736Z,9.97
2022-09-10T21:52:04.019Z,8.57
2022-09-10T21:54:35.829Z,7.23
2022-09-10T21:57:04.277Z,7.30
2022-09-10T21:59:35.829Z,8.90
2022-09-10T22:02:13.287Z,8.17
2022-09-10T22:04:40.304Z,6.50
2022-09-10T22:07:10.593Z,7.25
2022-09-10T22:09:38.019Z,9.03
2022-09-10T22:12:05.493Z,7.22
2022-09-10T22:14:44.638Z,7.17
2022-09-10T22:17:13.665Z,10.07
2022-09-10T22:19:47.568Z,6.55
2022-09-10T22:22:26.016Z,6.30
2022-09-10T22:24:53.798Z,6.03
2022-09-10T22:27:24.115Z,6.35
2022-09-10T22:29:53.626Z,7.20
2022-09-10T22:32:21.020Z,6.10
2022-09-10T22:34:52.875Z,8.45
2022-09-10T22:37:21.389Z,6.73
2022-09-10T22:39:49.102Z,8.20
2022-09-10T22:42:16.497Z,6.68
2022-09-10T22:44:43.736Z,6.10
2022-09-10T22:47:12.323Z,6.32
2022-09-10T22:49:40.791Z,6.50
2022-09-10T22:52:07.818Z,5.97
2022-09-10T22:54:37.998Z,9.07
2022-09-10T22:57:12.617Z,6.53
2022-09-10T22:59:43.205Z,7.97
2022-09-10T23:02:10.591Z,7.65
2022-09-10T23:04:38.104Z,9.07
2022-09-10T23:07:12.852Z,8.95
2022-09-10T23:12:38.906Z,6.93
2022-09-10T23:15:25.631Z,7.55
2022-09-10T23:17:58.021Z,8.40
2022-09-10T23:20:25.717Z,7.30
2022-09-10T23:22:57.335Z,8.02
2022-09-10T23:25:25.264Z,8.18
2022-09-10T23:27:55.137Z,8.80
2022-09-10T23:30:23.319Z,9.60
2022-09-10T23:35:36.896Z,10.82
2022-09-10T23:38:04.173Z,9.77
2022-09-10T23:40:37.002Z,9.10
2022-09-10T23:43:03.933Z,11.55
2022-09-10T23:45:31.666Z,8.50
2022-09-10T23:48:01.123Z,8.55
2022-09-10T23:50:29.284Z,8.40
2022-09-10T23:52:58.380Z,9.52
2022-09-10T23:55:32.679Z,8.15
2022-09-10T23:58:00.410Z,9.02
